コペンハーゲン の空港の天気 - METARとTAF

コペンハーゲン国際空港 ( EKCH / CPH ) - デンマーク コペンハーゲン
飛行場実況気象(Metar)
観測時間04/26 12:50 CEST (04/26 10:50 UTC)
風向・風速南西 5m/s
視程10km以上
天気現象
少しの雲 雲底高度 610m
全天の8割程度の雲 雲底高度 1010m
気温10℃
湿度76%
気圧1007hPa
METAREKCH 261050Z 22009KT 170V270 9999 FEW020CB BKN033 10/06 Q1007 RETS TEMPO SHRA TSGS
過去の天気等 Google飛行場航空写真 Wunderground天気予報

過去48時間のMETAR

飛行場予報(TAF)
発表時間: 4/26 06:55 CEST (4/26 04:55 UTC)
予報対象時間: 26日8時 CEST ~ 27日8時 CEST
風向・風速西 7m/s
視程10km以上
全天の4割程度の雲 雲底高度 1,070m
26日8時 CEST ~ 26日11時 CEST に一時的に
全天の8割程度の雲 雲底高度 370m
26日11時 CEST ~ 26日20時 CEST に一時的に
風向・風速西 8m/s 瞬間風速 13m/s
視程4,000m
天気現象しゅう雨 雷雨
全天の4割程度の積乱雲 雲底高度 610m
26日20時 CEST ~ 27日8時 CEST に一時的に
天気現象弱いしゅう雨
少しの積乱雲 雲底高度 610m
TAF EKCH 260455Z 2606/2706 26013KT 9999 SCT035
TEMPO 2606/2609 BKN012
TEMPO 2609/2618 26015G25KT 4000 SHRA TSRA SCT020CB
TEMPO 2618/2706 -SHRA FEW020CB